sensor_id;sensor_type;location;lat;lon;timestamp;pressure;altitude;pressure_sealevel;temperature;humidity
40592;BME280;26301;42.832;23.918;2024-02-16T00:00:12;93729.88;;;1.68;100.00
40592;BME280;26301;42.832;23.918;2024-02-16T00:02:39;93719.47;;;1.55;100.00
40592;BME280;26301;42.832;23.918;2024-02-16T00:05:06;93732.63;;;1.67;100.00
40592;BME280;26301;42.832;23.918;2024-02-16T00:07:33;93707.50;;;1.55;100.00
40592;BME280;26301;42.832;23.918;2024-02-16T00:09:59;93719.56;;;1.70;100.00
40592;BME280;26301;42.832;23.918;2024-02-16T00:12:25;93712.41;;;1.65;100.00
40592;BME280;26301;42.832;23.918;2024-02-16T00:14:50;93729.66;;;1.86;100.00
40592;BME280;26301;42.832;23.918;2024-02-16T00:17:16;93732.03;;;1.88;100.00
40592;BME280;26301;42.832;23.918;2024-02-16T00:19:41;93713.59;;;1.77;100.00
40592;BME280;26301;42.832;23.918;2024-02-16T00:22:07;93692.66;;;1.67;100.00
40592;BME280;26301;42.832;23.918;2024-02-16T00:24:33;93735.03;;;1.91;100.00
40592;BME280;26301;42.832;23.918;2024-02-16T00:26:59;93740.25;;;1.98;100.00
40592;BME280;26301;42.832;23.918;2024-02-16T00:29:26;93705.16;;;1.85;100.00
40592;BME280;26301;42.832;23.918;2024-02-16T00:31:51;93734.00;;;2.09;100.00
40592;BME280;26301;42.832;23.918;2024-02-16T00:34:17;93734.28;;;2.14;100.00
40592;BME280;26301;42.832;23.918;2024-02-16T00:36:42;93735.53;;;2.18;100.00
40592;BME280;26301;42.832;23.918;2024-02-16T00:39:07;93709.56;;;1.91;100.00
40592;BME280;26301;42.832;23.918;2024-02-16T00:41:33;93735.69;;;2.16;100.00
40592;BME280;26301;42.832;23.918;2024-02-16T00:43:59;93727.09;;;2.17;100.00
40592;BME280;26301;42.832;23.918;2024-02-16T00:46:25;93728.78;;;2.25;100.00
40592;BME280;26301;42.832;23.918;2024-02-16T00:48:52;93735.31;;;2.27;100.00
40592;BME280;26301;42.832;23.918;2024-02-16T00:51:17;93723.09;;;2.23;100.00
40592;BME280;26301;42.832;23.918;2024-02-16T00:53:43;93724.56;;;2.17;100.00
40592;BME280;26301;42.832;23.918;2024-02-16T00:56:09;93714.69;;;2.14;100.00
40592;BME280;26301;42.832;23.918;2024-02-16T00:58:35;93735.50;;;2.26;100.00
40592;BME280;26301;42.832;23.918;2024-02-16T01:01:01;93721.22;;;2.17;100.00
40592;BME280;26301;42.832;23.918;2024-02-16T01:03:26;93706.41;;;2.12;100.00
40592;BME280;26301;42.832;23.918;2024-02-16T01:05:52;93736.63;;;2.23;100.00
40592;BME280;26301;42.832;23.918;2024-02-16T01:08:18;93710.88;;;2.10;100.00
40592;BME280;26301;42.832;23.918;2024-02-16T01:10:44;93732.47;;;2.22;100.00
40592;BME280;26301;42.832;23.918;2024-02-16T01:13:09;93713.28;;;2.12;100.00
40592;BME280;26301;42.832;23.918;2024-02-16T01:15:35;93708.84;;;2.05;100.00
40592;BME280;26301;42.832;23.918;2024-02-16T01:18:03;93707.53;;;2.10;100.00
40592;BME280;26301;42.832;23.918;2024-02-16T01:20:28;93705.00;;;2.10;100.00
40592;BME280;26301;42.832;23.918;2024-02-16T01:22:56;93703.88;;;2.12;100.00
40592;BME280;26301;42.832;23.918;2024-02-16T01:25:22;93724.31;;;2.27;100.00
40592;BME280;26301;42.832;23.918;2024-02-16T01:27:47;93727.84;;;2.26;100.00
40592;BME280;26301;42.832;23.918;2024-02-16T01:30:13;93702.28;;;2.11;100.00
40592;BME280;26301;42.832;23.918;2024-02-16T01:32:39;93722.09;;;2.24;100.00
40592;BME280;26301;42.832;23.918;2024-02-16T01:35:05;93692.88;;;2.12;100.00
40592;BME280;26301;42.832;23.918;2024-02-16T01:37:31;93706.47;;;2.27;100.00
40592;BME280;26301;42.832;23.918;2024-02-16T01:39:57;93716.81;;;2.25;100.00
40592;BME280;26301;42.832;23.918;2024-02-16T01:42:22;93705.69;;;2.26;100.00
40592;BME280;26301;42.832;23.918;2024-02-16T01:44:48;93698.28;;;2.17;100.00
40592;BME280;26301;42.832;23.918;2024-02-16T01:47:14;93705.41;;;2.21;100.00
40592;BME280;26301;42.832;23.918;2024-02-16T01:49:40;93691.81;;;2.06;100.00
40592;BME280;26301;42.832;23.918;2024-02-16T01:52:06;93699.75;;;2.11;100.00
40592;BME280;26301;42.832;23.918;2024-02-16T01:54:32;93691.91;;;2.13;100.00
40592;BME280;26301;42.832;23.918;2024-02-16T01:56:57;93689.06;;;2.08;100.00
40592;BME280;26301;42.832;23.918;2024-02-16T01:59:24;93700.97;;;2.15;100.00
40592;BME280;26301;42.832;23.918;2024-02-16T02:01:49;93715.59;;;2.21;100.00
40592;BME280;26301;42.832;23.918;2024-02-16T02:04:16;93693.00;;;2.18;100.00
40592;BME280;26301;42.832;23.918;2024-02-16T02:06:42;93690.50;;;2.10;100.00
40592;BME280;26301;42.832;23.918;2024-02-16T02:09:07;93713.50;;;2.25;100.00
40592;BME280;26301;42.832;23.918;2024-02-16T02:11:34;93706.91;;;2.31;100.00
40592;BME280;26301;42.832;23.918;2024-02-16T02:13:59;93677.59;;;2.12;100.00
40592;BME280;26301;42.832;23.918;2024-02-16T02:16:25;93699.47;;;2.29;100.00
40592;BME280;26301;42.832;23.918;2024-02-16T02:18:52;93691.47;;;2.09;100.00
40592;BME280;26301;42.832;23.918;2024-02-16T02:21:17;93704.94;;;2.18;100.00
40592;BME280;26301;42.832;23.918;2024-02-16T02:23:43;93715.25;;;2.24;100.00
40592;BME280;26301;42.832;23.918;2024-02-16T02:26:09;93677.94;;;2.09;100.00
40592;BME280;26301;42.832;23.918;2024-02-16T02:28:34;93630.53;;;1.76;100.00
40592;BME280;26301;42.832;23.918;2024-02-16T02:31:00;93710.84;;;2.18;100.00
40592;BME280;26301;42.832;23.918;2024-02-16T02:33:25;93702.69;;;2.23;100.00
40592;BME280;26301;42.832;23.918;2024-02-16T02:35:51;93708.28;;;2.18;100.00
40592;BME280;26301;42.832;23.918;2024-02-16T02:38:17;93686.06;;;2.04;100.00
40592;BME280;26301;42.832;23.918;2024-02-16T02:40:42;93712.41;;;2.19;100.00
40592;BME280;26301;42.832;23.918;2024-02-16T02:43:08;93708.69;;;2.30;100.00
40592;BME280;26301;42.832;23.918;2024-02-16T02:45:34;93706.63;;;2.25;100.00
40592;BME280;26301;42.832;23.918;2024-02-16T02:48:00;93709.31;;;2.32;100.00
40592;BME280;26301;42.832;23.918;2024-02-16T02:50:25;93703.06;;;2.35;100.00
40592;BME280;26301;42.832;23.918;2024-02-16T02:52:51;93709.31;;;2.32;100.00
40592;BME280;26301;42.832;23.918;2024-02-16T02:55:16;93687.25;;;2.16;100.00
40592;BME280;26301;42.832;23.918;2024-02-16T02:57:42;93709.31;;;2.32;100.00
40592;BME280;26301;42.832;23.918;2024-02-16T03:00:08;93699.97;;;2.24;100.00
40592;BME280;26301;42.832;23.918;2024-02-16T03:02:38;93649.66;;;1.95;100.00
40592;BME280;26301;42.832;23.918;2024-02-16T03:05:06;93705.44;;;2.36;100.00
40592;BME280;26301;42.832;23.918;2024-02-16T03:07:33;93713.53;;;2.40;100.00
40592;BME280;26301;42.832;23.918;2024-02-16T03:09:59;93695.50;;;2.26;100.00
40592;BME280;26301;42.832;23.918;2024-02-16T03:12:24;93722.28;;;2.45;100.00
40592;BME280;26301;42.832;23.918;2024-02-16T03:14:50;93724.47;;;2.48;100.00
40592;BME280;26301;42.832;23.918;2024-02-16T03:17:15;93716.63;;;2.35;100.00
40592;BME280;26301;42.832;23.918;2024-02-16T03:19:41;93694.81;;;2.33;100.00
40592;BME280;26301;42.832;23.918;2024-02-16T03:22:06;93695.41;;;2.35;100.00
40592;BME280;26301;42.832;23.918;2024-02-16T03:24:32;93723.97;;;2.53;100.00
40592;BME280;26301;42.832;23.918;2024-02-16T03:26:58;93723.78;;;2.55;100.00
40592;BME280;26301;42.832;23.918;2024-02-16T03:29:23;93712.53;;;2.49;100.00
40592;BME280;26301;42.832;23.918;2024-02-16T03:31:50;93699.22;;;2.39;100.00
40592;BME280;26301;42.832;23.918;2024-02-16T03:34:15;93703.78;;;2.43;100.00
40592;BME280;26301;42.832;23.918;2024-02-16T03:36:41;93719.31;;;2.57;100.00
40592;BME280;26301;42.832;23.918;2024-02-16T03:39:06;93727.56;;;2.59;100.00
40592;BME280;26301;42.832;23.918;2024-02-16T03:41:34;93702.66;;;2.46;100.00
40592;BME280;26301;42.832;23.918;2024-02-16T03:44:00;93701.44;;;2.42;100.00
40592;BME280;26301;42.832;23.918;2024-02-16T03:46:26;93717.72;;;2.56;100.00
40592;BME280;26301;42.832;23.918;2024-02-16T03:48:52;93705.66;;;2.49;100.00
40592;BME280;26301;42.832;23.918;2024-02-16T03:51:18;93719.31;;;2.57;100.00
40592;BME280;26301;42.832;23.918;2024-02-16T03:53:43;93692.91;;;2.49;100.00
40592;BME280;26301;42.832;23.918;2024-02-16T03:56:18;93723.09;;;2.61;100.00
40592;BME280;26301;42.832;23.918;2024-02-16T03:58:43;93705.66;;;2.49;100.00
40592;BME280;26301;42.832;23.918;2024-02-16T04:01:09;93694.56;;;2.42;100.00
40592;BME280;26301;42.832;23.918;2024-02-16T04:03:34;93677.75;;;2.33;100.00
40592;BME280;26301;42.832;23.918;2024-02-16T04:06:00;93729.47;;;2.65;100.00
40592;BME280;26301;42.832;23.918;2024-02-16T04:08:26;93703.09;;;2.49;100.00
40592;BME280;26301;42.832;23.918;2024-02-16T04:10:52;93700.09;;;2.46;100.00
40592;BME280;26301;42.832;23.918;2024-02-16T04:13:17;93716.31;;;2.53;100.00
40592;BME280;26301;42.832;23.918;2024-02-16T04:15:43;93727.75;;;2.57;100.00
40592;BME280;26301;42.832;23.918;2024-02-16T04:18:08;93719.94;;;2.59;100.00
40592;BME280;26301;42.832;23.918;2024-02-16T04:20:35;93720.09;;;2.57;100.00
40592;BME280;26301;42.832;23.918;2024-02-16T04:23:01;93722.16;;;2.62;100.00
40592;BME280;26301;42.832;23.918;2024-02-16T04:25:26;93706.56;;;2.57;100.00
40592;BME280;26301;42.832;23.918;2024-02-16T04:27:53;93703.22;;;2.56;100.00
40592;BME280;26301;42.832;23.918;2024-02-16T04:30:18;93727.97;;;2.70;100.00
40592;BME280;26301;42.832;23.918;2024-02-16T04:32:44;93721.91;;;2.71;100.00
40592;BME280;26301;42.832;23.918;2024-02-16T04:35:10;93693.72;;;2.50;100.00
40592;BME280;26301;42.832;23.918;2024-02-16T04:37:40;93720.59;;;2.75;100.00
40592;BME280;26301;42.832;23.918;2024-02-16T04:40:06;93722.50;;;2.73;100.00
40592;BME280;26301;42.832;23.918;2024-02-16T04:42:33;93698.91;;;2.57;100.00
40592;BME280;26301;42.832;23.918;2024-02-16T04:44:58;93704.63;;;2.59;100.00
40592;BME280;26301;42.832;23.918;2024-02-16T04:47:27;93703.84;;;2.58;100.00
40592;BME280;26301;42.832;23.918;2024-02-16T04:49:52;93723.84;;;2.69;100.00
40592;BME280;26301;42.832;23.918;2024-02-16T04:52:18;93703.22;;;2.56;100.00
40592;BME280;26301;42.832;23.918;2024-02-16T04:54:43;93737.81;;;2.73;100.00
40592;BME280;26301;42.832;23.918;2024-02-16T04:57:09;93704.03;;;2.57;100.00
40592;BME280;26301;42.832;23.918;2024-02-16T04:59:34;93706.28;;;2.51;100.00
40592;BME280;26301;42.832;23.918;2024-02-16T05:01:59;93702.31;;;2.49;100.00
40592;BME280;26301;42.832;23.918;2024-02-16T05:04:25;93722.84;;;2.70;100.00
40592;BME280;26301;42.832;23.918;2024-02-16T05:06:50;93694.84;;;2.47;100.00
40592;BME280;26301;42.832;23.918;2024-02-16T05:09:17;93705.50;;;2.51;100.00
40592;BME280;26301;42.832;23.918;2024-02-16T05:11:44;93666.66;;;2.26;100.00
40592;BME280;26301;42.832;23.918;2024-02-16T05:14:10;93735.50;;;2.64;100.00
40592;BME280;26301;42.832;23.918;2024-02-16T05:16:45;93720.94;;;2.49;100.00
40592;BME280;26301;42.832;23.918;2024-02-16T05:19:11;93731.28;;;2.56;100.00
40592;BME280;26301;42.832;23.918;2024-02-16T05:21:36;93723.97;;;2.53;100.00
40592;BME280;26301;42.832;23.918;2024-02-16T05:24:02;93719.56;;;2.47;100.00
40592;BME280;26301;42.832;23.918;2024-02-16T05:26:28;93721.44;;;2.53;100.00
40592;BME280;26301;42.832;23.918;2024-02-16T05:28:53;93743.50;;;2.61;100.00
40592;BME280;26301;42.832;23.918;2024-02-16T05:31:19;93723.00;;;2.54;100.00
40592;BME280;26301;42.832;23.918;2024-02-16T05:33:49;93713.31;;;2.49;100.00
40592;BME280;26301;42.832;23.918;2024-02-16T05:36:21;93732.97;;;2.64;100.00
40592;BME280;26301;42.832;23.918;2024-02-16T05:38:50;93743.78;;;2.66;100.00
40592;BME280;26301;42.832;23.918;2024-02-16T05:41:17;93731.19;;;2.64;100.00
40592;BME280;26301;42.832;23.918;2024-02-16T05:43:43;93725.66;;;2.61;100.00
40592;BME280;26301;42.832;23.918;2024-02-16T05:46:16;93751.84;;;2.78;100.00
40592;BME280;26301;42.832;23.918;2024-02-16T05:48:43;93729.13;;;2.68;100.00
40592;BME280;26301;42.832;23.918;2024-02-16T05:51:09;93731.69;;;2.68;100.00
40592;BME280;26301;42.832;23.918;2024-02-16T05:53:37;93738.06;;;2.64;100.00
40592;BME280;26301;42.832;23.918;2024-02-16T05:56:03;93732.56;;;2.52;100.00
40592;BME280;26301;42.832;23.918;2024-02-16T05:58:29;93761.94;;;2.71;100.00
40592;BME280;26301;42.832;23.918;2024-02-16T06:00:54;93775.41;;;2.80;100.00
40592;BME280;26301;42.832;23.918;2024-02-16T06:03:20;93751.44;;;2.66;100.00
40592;BME280;26301;42.832;23.918;2024-02-16T06:05:46;93760.34;;;2.70;100.00
40592;BME280;26301;42.832;23.918;2024-02-16T06:08:13;93739.03;;;2.63;100.00
40592;BME280;26301;42.832;23.918;2024-02-16T06:10:39;93765.81;;;2.82;100.00
40592;BME280;26301;42.832;23.918;2024-02-16T06:13:05;93759.75;;;2.83;100.00
40592;BME280;26301;42.832;23.918;2024-02-16T06:15:31;93740.38;;;2.73;100.00
40592;BME280;26301;42.832;23.918;2024-02-16T06:17:59;93763.16;;;2.98;100.00
40592;BME280;26301;42.832;23.918;2024-02-16T06:20:25;93739.00;;;2.86;100.00
40592;BME280;26301;42.832;23.918;2024-02-16T06:22:50;93772.47;;;3.06;100.00
40592;BME280;26301;42.832;23.918;2024-02-16T06:25:16;93745.63;;;2.95;100.00
40592;BME280;26301;42.832;23.918;2024-02-16T06:27:41;93754.16;;;3.02;100.00
40592;BME280;26301;42.832;23.918;2024-02-16T06:30:07;93756.03;;;3.08;100.00
40592;BME280;26301;42.832;23.918;2024-02-16T06:32:37;93753.91;;;3.12;100.00
40592;BME280;26301;42.832;23.918;2024-02-16T06:35:03;93777.78;;;3.34;100.00
40592;BME280;26301;42.832;23.918;2024-02-16T06:37:28;93748.38;;;3.23;100.00
40592;BME280;26301;42.832;23.918;2024-02-16T06:39:54;93777.09;;;3.40;100.00
40592;BME280;26301;42.832;23.918;2024-02-16T06:42:19;93772.59;;;3.42;100.00
40592;BME280;26301;42.832;23.918;2024-02-16T06:44:45;93777.63;;;3.50;100.00
40592;BME280;26301;42.832;23.918;2024-02-16T06:47:10;93758.69;;;3.44;100.00
40592;BME280;26301;42.832;23.918;2024-02-16T06:49:36;93762.38;;;3.57;100.00
40592;BME280;26301;42.832;23.918;2024-02-16T06:52:02;93755.50;;;3.57;100.00
40592;BME280;26301;42.832;23.918;2024-02-16T06:54:28;93784.94;;;3.83;98.96
40592;BME280;26301;42.832;23.918;2024-02-16T06:56:53;93782.03;;;3.86;96.53
40592;BME280;26301;42.832;23.918;2024-02-16T06:59:19;93792.16;;;3.94;94.63
40592;BME280;26301;42.832;23.918;2024-02-16T07:01:45;93767.84;;;3.83;93.16
40592;BME280;26301;42.832;23.918;2024-02-16T07:04:10;93790.03;;;3.98;92.51
40592;BME280;26301;42.832;23.918;2024-02-16T07:06:36;93776.69;;;4.02;90.56
40592;BME280;26301;42.832;23.918;2024-02-16T07:09:01;93785.31;;;4.16;91.14
40592;BME280;26301;42.832;23.918;2024-02-16T07:11:28;93786.09;;;4.31;88.92
40592;BME280;26301;42.832;23.918;2024-02-16T07:13:53;93786.94;;;4.39;87.79
40592;BME280;26301;42.832;23.918;2024-02-16T07:16:19;93769.59;;;4.34;88.14
40592;BME280;26301;42.832;23.918;2024-02-16T07:18:45;93765.31;;;4.41;87.55
40592;BME280;26301;42.832;23.918;2024-02-16T07:21:10;93786.72;;;4.76;82.37
40592;BME280;26301;42.832;23.918;2024-02-16T07:23:36;93763.81;;;4.68;80.90
40592;BME280;26301;42.832;23.918;2024-02-16T07:26:02;93752.88;;;4.81;80.98
40592;BME280;26301;42.832;23.918;2024-02-16T07:28:28;93780.88;;;5.11;77.86
40592;BME280;26301;42.832;23.918;2024-02-16T07:30:53;93756.44;;;5.08;79.36
40592;BME280;26301;42.832;23.918;2024-02-16T07:33:19;93781.88;;;5.38;75.58
40592;BME280;26301;42.832;23.918;2024-02-16T07:35:45;93789.00;;;5.42;76.56
40592;BME280;26301;42.832;23.918;2024-02-16T07:38:10;93766.50;;;5.38;77.49
40592;BME280;26301;42.832;23.918;2024-02-16T07:40:36;93790.09;;;5.61;74.19
40592;BME280;26301;42.832;23.918;2024-02-16T07:43:02;93790.13;;;5.68;72.70
40592;BME280;26301;42.832;23.918;2024-02-16T07:45:28;93767.66;;;5.63;73.89
40592;BME280;26301;42.832;23.918;2024-02-16T07:47:54;93793.84;;;5.93;71.60
40592;BME280;26301;42.832;23.918;2024-02-16T07:50:21;93795.97;;;5.90;73.84
40592;BME280;26301;42.832;23.918;2024-02-16T07:52:47;93775.78;;;5.73;74.20
40592;BME280;26301;42.832;23.918;2024-02-16T07:55:13;93780.38;;;5.85;72.04
40592;BME280;26301;42.832;23.918;2024-02-16T07:57:38;93784.50;;;5.86;72.41
40592;BME280;26301;42.832;23.918;2024-02-16T08:00:05;93797.84;;;6.03;70.56
40592;BME280;26301;42.832;23.918;2024-02-16T08:02:31;93783.59;;;5.93;70.79
40592;BME280;26301;42.832;23.918;2024-02-16T08:04:56;93799.81;;;6.07;71.44
40592;BME280;26301;42.832;23.918;2024-02-16T08:07:22;93800.66;;;6.14;71.48
40592;BME280;26301;42.832;23.918;2024-02-16T08:09:47;93792.50;;;6.04;69.28
40592;BME280;26301;42.832;23.918;2024-02-16T08:12:13;93813.09;;;6.17;70.63
40592;BME280;26301;42.832;23.918;2024-02-16T08:14:39;93798.50;;;6.18;70.03
40592;BME280;26301;42.832;23.918;2024-02-16T08:17:08;93813.91;;;6.31;69.20
40592;BME280;26301;42.832;23.918;2024-02-16T08:19:35;93794.94;;;6.19;69.80
40592;BME280;26301;42.832;23.918;2024-02-16T08:22:02;93807.44;;;6.35;67.94
40592;BME280;26301;42.832;23.918;2024-02-16T08:24:28;93809.81;;;6.44;68.91
40592;BME280;26301;42.832;23.918;2024-02-16T08:26:54;93816.94;;;6.41;68.23
40592;BME280;26301;42.832;23.918;2024-02-16T08:29:19;93800.13;;;6.39;67.51
40592;BME280;26301;42.832;23.918;2024-02-16T08:31:48;93801.31;;;6.36;68.46
40592;BME280;26301;42.832;23.918;2024-02-16T08:34:14;93819.94;;;6.58;70.47
40592;BME280;26301;42.832;23.918;2024-02-16T08:36:44;93813.63;;;6.61;67.91
40592;BME280;26301;42.832;23.918;2024-02-16T08:39:09;93826.13;;;6.84;68.71
40592;BME280;26301;42.832;23.918;2024-02-16T08:41:37;93822.16;;;6.81;66.96
40592;BME280;26301;42.832;23.918;2024-02-16T08:44:03;93821.19;;;6.89;68.16
40592;BME280;26301;42.832;23.918;2024-02-16T08:46:28;93824.75;;;7.01;68.69
40592;BME280;26301;42.832;23.918;2024-02-16T08:48:55;93811.94;;;7.08;70.03
40592;BME280;26301;42.832;23.918;2024-02-16T08:51:20;93816.84;;;7.03;66.23
40592;BME280;26301;42.832;23.918;2024-02-16T08:53:46;93812.13;;;7.26;66.90
40592;BME280;26301;42.832;23.918;2024-02-16T08:56:12;93800.25;;;7.19;65.38
40592;BME280;26301;42.832;23.918;2024-02-16T08:58:38;93802.63;;;7.27;66.16
40592;BME280;26301;42.832;23.918;2024-02-16T09:01:04;93796.09;;;7.31;65.48
40592;BME280;26301;42.832;23.918;2024-02-16T09:03:30;93818.81;;;7.67;63.17
40592;BME280;26301;42.832;23.918;2024-02-16T09:06:02;93818.00;;;7.87;64.65
40592;BME280;26301;42.832;23.918;2024-02-16T09:08:28;93819.69;;;8.06;65.25
40592;BME280;26301;42.832;23.918;2024-02-16T09:10:59;93816.88;;;8.28;63.98
40592;BME280;26301;42.832;23.918;2024-02-16T09:13:24;93819.03;;;8.37;62.78
40592;BME280;26301;42.832;23.918;2024-02-16T09:15:50;93820.19;;;8.48;59.91
40592;BME280;26301;42.832;23.918;2024-02-16T09:18:17;93810.13;;;8.40;61.07
40592;BME280;26301;42.832;23.918;2024-02-16T09:20:43;93826.38;;;8.40;59.58
40592;BME280;26301;42.832;23.918;2024-02-16T09:23:08;93821.44;;;8.25;59.38
40592;BME280;26301;42.832;23.918;2024-02-16T09:25:35;93813.16;;;8.17;59.05
40592;BME280;26301;42.832;23.918;2024-02-16T09:28:00;93829.59;;;8.16;60.15
40592;BME280;26301;42.832;23.918;2024-02-16T09:30:26;93811.69;;;7.83;60.70
40592;BME280;26301;42.832;23.918;2024-02-16T09:32:51;93806.94;;;7.73;62.93
40592;BME280;26301;42.832;23.918;2024-02-16T09:35:17;93817.59;;;7.83;61.28
40592;BME280;26301;42.832;23.918;2024-02-16T09:37:43;93829.28;;;7.86;59.91
40592;BME280;26301;42.832;23.918;2024-02-16T09:40:11;93802.19;;;7.76;60.60
40592;BME280;26301;42.832;23.918;2024-02-16T09:42:38;93806.75;;;7.68;62.77
40592;BME280;26301;42.832;23.918;2024-02-16T09:45:05;93830.66;;;7.75;62.69
40592;BME280;26301;42.832;23.918;2024-02-16T09:47:32;93830.09;;;7.79;61.85
40592;BME280;26301;42.832;23.918;2024-02-16T09:50:00;93815.22;;;7.82;62.81
40592;BME280;26301;42.832;23.918;2024-02-16T09:52:26;93813.25;;;7.77;61.56
40592;BME280;26301;42.832;23.918;2024-02-16T09:54:51;93828.09;;;7.88;60.77
40592;BME280;26301;42.832;23.918;2024-02-16T09:57:17;93824.31;;;7.84;61.85
40592;BME280;26301;42.832;23.918;2024-02-16T09:59:43;93809.88;;;7.83;59.60
40592;BME280;26301;42.832;23.918;2024-02-16T10:02:08;93826.09;;;7.90;60.83
40592;BME280;26301;42.832;23.918;2024-02-16T10:04:34;93818.19;;;7.85;61.15
40592;BME280;26301;42.832;23.918;2024-02-16T10:07:00;93802.75;;;7.78;59.78
40592;BME280;26301;42.832;23.918;2024-02-16T10:09:27;93804.16;;;7.74;60.60
40592;BME280;26301;42.832;23.918;2024-02-16T10:11:55;93826.50;;;7.87;60.88
40592;BME280;26301;42.832;23.918;2024-02-16T10:14:22;93796.66;;;7.79;59.22
40592;BME280;26301;42.832;23.918;2024-02-16T10:16:48;93785.38;;;7.74;59.91
40592;BME280;26301;42.832;23.918;2024-02-16T10:19:13;93818.97;;;7.92;60.13
40592;BME280;26301;42.832;23.918;2024-02-16T10:21:40;93809.50;;;7.86;60.54
40592;BME280;26301;42.832;23.918;2024-02-16T10:24:06;93788.53;;;7.83;60.94
40592;BME280;26301;42.832;23.918;2024-02-16T10:26:34;93783.94;;;7.85;60.45
40592;BME280;26301;42.832;23.918;2024-02-16T10:29:05;93812.19;;;8.05;60.30
40592;BME280;26301;42.832;23.918;2024-02-16T10:31:31;93803.06;;;8.09;60.57
40592;BME280;26301;42.832;23.918;2024-02-16T10:34:00;93803.47;;;8.19;60.02
40592;BME280;26301;42.832;23.918;2024-02-16T10:36:27;93797.28;;;8.27;60.25
40592;BME280;26301;42.832;23.918;2024-02-16T10:38:55;93797.09;;;8.28;59.33
40592;BME280;26301;42.832;23.918;2024-02-16T10:41:26;93783.09;;;8.11;59.14
40592;BME280;26301;42.832;23.918;2024-02-16T10:43:55;93792.91;;;8.27;59.10
40592;BME280;26301;42.832;23.918;2024-02-16T10:46:22;93790.16;;;8.29;58.58
40592;BME280;26301;42.832;23.918;2024-02-16T10:48:49;93765.38;;;8.34;59.86
40592;BME280;26301;42.832;23.918;2024-02-16T10:51:17;93790.81;;;8.62;58.69
40592;BME280;26301;42.832;23.918;2024-02-16T10:53:46;93779.06;;;8.73;57.02
40592;BME280;26301;42.832;23.918;2024-02-16T10:56:13;93760.84;;;8.68;58.42
40592;BME280;26301;42.832;23.918;2024-02-16T10:58:39;93786.88;;;8.91;56.61
40592;BME280;26301;42.832;23.918;2024-02-16T11:01:09;93776.56;;;8.91;58.46
40592;BME280;26301;42.832;23.918;2024-02-16T11:03:38;93773.94;;;8.98;56.58
40592;BME280;26301;42.832;23.918;2024-02-16T11:06:15;93763.03;;;8.96;55.29
40592;BME280;26301;42.832;23.918;2024-02-16T11:08:43;93775.47;;;9.06;56.31
40592;BME280;26301;42.832;23.918;2024-02-16T11:11:09;93750.75;;;8.98;57.98
40592;BME280;26301;42.832;23.918;2024-02-16T11:13:38;93774.53;;;9.25;55.82
40592;BME280;26301;42.832;23.918;2024-02-16T11:16:09;93748.22;;;9.16;55.62
40592;BME280;26301;42.832;23.918;2024-02-16T11:18:39;93766.59;;;9.27;54.04
40592;BME280;26301;42.832;23.918;2024-02-16T11:21:05;93753.53;;;9.22;55.83
40592;BME280;26301;42.832;23.918;2024-02-16T11:23:35;93744.25;;;9.21;57.67
40592;BME280;26301;42.832;23.918;2024-02-16T11:26:03;93744.38;;;9.26;58.09
40592;BME280;26301;42.832;23.918;2024-02-16T11:28:33;93744.03;;;9.41;56.51
40592;BME280;26301;42.832;23.918;2024-02-16T11:31:00;93732.34;;;9.38;56.82
40592;BME280;26301;42.832;23.918;2024-02-16T11:33:26;93742.50;;;9.58;55.07
40592;BME280;26301;42.832;23.918;2024-02-16T11:35:58;93738.91;;;9.59;53.35
40592;BME280;26301;42.832;23.918;2024-02-16T11:38:25;93748.78;;;9.44;54.82
40592;BME280;26301;42.832;23.918;2024-02-16T11:40:54;93754.59;;;9.57;58.35
40592;BME280;26301;42.832;23.918;2024-02-16T11:43:23;93739.75;;;9.53;57.38
40592;BME280;26301;42.832;23.918;2024-02-16T11:45:49;93746.44;;;9.60;57.34
40592;BME280;26301;42.832;23.918;2024-02-16T11:48:25;93723.72;;;9.51;54.92
40592;BME280;26301;42.832;23.918;2024-02-16T11:50:59;93733.75;;;9.59;54.73
40592;BME280;26301;42.832;23.918;2024-02-16T11:53:25;93736.69;;;9.62;53.74
40592;BME280;26301;42.832;23.918;2024-02-16T11:55:50;93730.81;;;9.74;54.96
40592;BME280;26301;42.832;23.918;2024-02-16T11:58:17;93730.63;;;9.75;53.91
40592;BME280;26301;42.832;23.918;2024-02-16T12:00:47;93725.53;;;9.69;54.25
40592;BME280;26301;42.832;23.918;2024-02-16T12:03:40;93735.41;;;9.72;56.33
40592;BME280;26301;42.832;23.918;2024-02-16T12:06:06;93691.53;;;9.35;54.86
40592;BME280;26301;42.832;23.918;2024-02-16T12:08:35;93715.59;;;9.47;53.03
40592;BME280;26301;42.832;23.918;2024-02-16T12:11:02;93714.56;;;9.55;53.12
40592;BME280;26301;42.832;23.918;2024-02-16T12:13:27;93725.50;;;9.50;53.98
40592;BME280;26301;42.832;23.918;2024-02-16T12:15:53;93714.31;;;9.38;53.82
40592;BME280;26301;42.832;23.918;2024-02-16T12:18:22;93716.69;;;9.39;53.90
40592;BME280;26301;42.832;23.918;2024-02-16T12:21:01;93695.03;;;9.22;53.52
40592;BME280;26301;42.832;23.918;2024-02-16T12:23:27;93716.88;;;9.20;54.97
40592;BME280;26301;42.832;23.918;2024-02-16T12:25:54;93716.38;;;9.29;55.17
40592;BME280;26301;42.832;23.918;2024-02-16T12:28:23;93704.59;;;9.40;56.81
40592;BME280;26301;42.832;23.918;2024-02-16T12:30:49;93697.84;;;9.39;56.96
40592;BME280;26301;42.832;23.918;2024-02-16T12:33:15;93690.91;;;9.39;54.90
40592;BME280;26301;42.832;23.918;2024-02-16T12:35:41;93692.28;;;9.42;54.34
40592;BME280;26301;42.832;23.918;2024-02-16T12:38:07;93691.63;;;9.47;55.84
40592;BME280;26301;42.832;23.918;2024-02-16T12:40:32;93707.81;;;9.72;54.69
40592;BME280;26301;42.832;23.918;2024-02-16T12:42:58;93683.31;;;9.63;55.43
40592;BME280;26301;42.832;23.918;2024-02-16T12:45:23;93685.41;;;9.73;54.08
40592;BME280;26301;42.832;23.918;2024-02-16T12:47:49;93707.81;;;9.91;53.22
40592;BME280;26301;42.832;23.918;2024-02-16T12:50:17;93711.03;;;9.86;52.55